Time;durP1;ratioP1;P1;durP2;ratioP2;P2;SDS_P1;SDS_P2;PMS_P1;PMS_P2;Temp;Humidity;BMP_temperature;BMP_pressure;BME280_temperature;BME280_humidity;BME280_pressure;Samples;Min_cycle;Max_cycle;Signal;HPM_P1;HPM_P2
2023/10/13 00:00:33;;;;;;;5.05;2.95;;;16.00;99.90;;;;;;6242795;23;20019;-70
2023/10/13 00:03:19;;;;;;;5.78;3.30;;;15.90;99.90;;;;;;6245700;23;20012;-69
2023/10/13 00:06:06;;;;;;;6.65;2.75;;;16.00;99.90;;;;;;6241304;23;20020;-70
2023/10/13 00:08:52;;;;;;;8.27;3.20;;;15.90;99.90;;;;;;6243755;23;20011;-71
2023/10/13 00:11:44;;;;;;;6.13;2.95;;;15.90;99.90;;;;;;6240938;23;20039;-71
2023/10/13 00:14:33;;;;;;;5.28;2.50;;;16.00;99.90;;;;;;6244447;23;20009;-72
2023/10/13 00:17:20;;;;;;;4.22;2.35;;;16.00;99.90;;;;;;6243773;23;20007;-71
2023/10/13 00:20:12;;;;;;;4.75;2.58;;;16.00;99.90;;;;;;6242210;23;20004;-72
2023/10/13 00:22:59;;;;;;;6.25;2.70;;;16.00;99.90;;;;;;6241720;23;20031;-72
2023/10/13 00:25:49;;;;;;;5.80;2.40;;;15.90;99.90;;;;;;6238946;23;20047;-63
2023/10/13 00:28:35;;;;;;;7.32;3.45;;;15.90;99.90;;;;;;6238665;23;20442;-64
2023/10/13 00:31:21;;;;;;;5.63;2.63;;;15.90;99.90;;;;;;6238394;23;20019;-64
2023/10/13 00:34:12;;;;;;;5.25;2.20;;;15.90;99.90;;;;;;6240142;23;20377;-63
2023/10/13 00:37:18;;;;;;;4.45;2.60;;;15.90;99.90;;;;;;6239690;23;20008;-64
2023/10/13 00:40:16;;;;;;;8.30;2.95;;;15.90;99.90;;;;;;6238059;23;20092;-65
2023/10/13 00:46:07;;;;;;;3.88;2.63;;;15.90;99.90;;;;;;6239278;23;20074;-64
2023/10/13 00:48:54;;;;;;;4.90;2.75;;;15.90;99.90;;;;;;6239828;23;20399;-64
2023/10/13 00:51:40;;;;;;;7.13;2.83;;;15.90;99.90;;;;;;6236934;23;20132;-64
2023/10/13 00:54:26;;;;;;;4.75;2.40;;;15.90;99.90;;;;;;6240677;23;20038;-71
2023/10/13 00:57:26;;;;;;;5.63;3.33;;;15.90;99.90;;;;;;6238301;22;20016;-72
2023/10/13 01:00:19;;;;;;;6.47;3.00;;;15.90;99.90;;;;;;6237997;23;20070;-72
2023/10/13 01:03:06;;;;;;;4.40;2.55;;;15.90;99.90;;;;;;6237467;23;20008;-72
2023/10/13 01:05:55;;;;;;;4.90;2.50;;;15.90;99.90;;;;;;6240762;23;20099;-72
2023/10/13 01:08:44;;;;;;;4.03;2.60;;;15.90;99.90;;;;;;6240815;23;20083;-71
2023/10/13 01:11:31;;;;;;;5.95;3.60;;;15.90;99.90;;;;;;6239527;23;20012;-70
2023/10/13 01:14:21;;;;;;;4.80;2.60;;;15.80;99.90;;;;;;6238064;23;20016;-70
2023/10/13 01:17:07;;;;;;;4.88;2.67;;;15.80;99.90;;;;;;6239213;23;20016;-70
2023/10/13 01:19:58;;;;;;;3.78;2.45;;;15.80;99.90;;;;;;6238053;23;20008;-70
2023/10/13 01:22:44;;;;;;;4.93;2.40;;;15.80;99.90;;;;;;6237982;23;20016;-70
2023/10/13 01:25:30;;;;;;;5.50;2.65;;;15.80;99.90;;;;;;6237516;23;20016;-70
2023/10/13 01:28:17;;;;;;;4.05;2.50;;;15.80;99.90;;;;;;6238252;23;20008;-70
2023/10/13 01:31:03;;;;;;;5.88;2.72;;;15.80;99.90;;;;;;6238765;23;20015;-70
2023/10/13 01:33:53;;;;;;;4.45;2.80;;;15.80;99.90;;;;;;6237473;23;20016;-72
2023/10/13 01:36:40;;;;;;;6.28;3.15;;;15.80;99.90;;;;;;6238387;23;20008;-71
2023/10/13 01:39:26;;;;;;;6.03;3.67;;;15.90;99.90;;;;;;6241437;23;20477;-71
2023/10/13 01:42:14;;;;;;;8.05;3.30;;;15.90;99.90;;;;;;6237808;23;20016;-71
2023/10/13 01:45:05;;;;;;;9.63;3.80;;;15.90;99.90;;;;;;6237834;23;20549;-71
2023/10/13 01:47:51;;;;;;;7.07;3.13;;;15.90;99.90;;;;;;6238686;23;20521;-69
2023/10/13 01:50:37;;;;;;;8.20;4.18;;;15.90;99.90;;;;;;6237195;23;20022;-68
2023/10/13 01:53:22;;;;;;;6.00;3.80;;;15.90;99.90;;;;;;6237572;23;20008;-69
2023/10/13 01:56:11;;;;;;;7.45;3.45;;;15.90;99.90;;;;;;6238395;22;20476;-69
2023/10/13 01:58:57;;;;;;;6.68;3.58;;;15.90;99.90;;;;;;6238285;23;20023;-67
2023/10/13 02:01:43;;;;;;;5.22;3.78;;;15.90;99.90;;;;;;6238111;23;20015;-68
2023/10/13 02:04:32;;;;;;;6.95;3.85;;;15.90;99.90;;;;;;6237339;23;20008;-69
2023/10/13 02:07:20;;;;;;;7.10;3.58;;;15.90;99.90;;;;;;6236947;23;20016;-69
2023/10/13 02:10:06;;;;;;;7.75;3.17;;;15.90;99.90;;;;;;6239602;23;20008;-69
2023/10/13 02:12:55;;;;;;;5.72;3.75;;;15.90;99.90;;;;;;6238306;23;20008;-69
2023/10/13 02:15:43;;;;;;;8.32;3.42;;;15.90;99.90;;;;;;6238232;23;20450;-69
2023/10/13 02:18:41;;;;;;;7.03;4.05;;;15.90;99.90;;;;;;6239024;23;20099;-69
2023/10/13 02:21:31;;;;;;;7.88;4.43;;;15.90;99.90;;;;;;6238393;23;20493;-69
2023/10/13 02:24:29;;;;;;;6.25;3.72;;;15.90;99.90;;;;;;6240453;23;20342;-68
2023/10/13 02:27:15;;;;;;;8.00;4.20;;;15.80;99.90;;;;;;6237257;23;20027;-69
2023/10/13 02:30:01;;;;;;;7.18;4.20;;;15.80;99.90;;;;;;6237943;23;20034;-68
2023/10/13 02:32:48;;;;;;;10.40;4.80;;;15.80;99.90;;;;;;6237699;23;20016;-69
2023/10/13 02:35:36;;;;;;;7.13;4.13;;;15.80;99.90;;;;;;6241040;23;20065;-68
2023/10/13 02:38:46;;;;;;;9.90;4.22;;;15.80;99.90;;;;;;6239752;23;20016;-68
2023/10/13 02:41:29;;;;;;;8.45;4.50;;;15.80;99.90;;;;;;6238717;23;20070;-68
2023/10/13 02:44:27;;;;;;;6.47;4.10;;;15.80;99.90;;;;;;6237749;23;20438;-68
2023/10/13 02:47:14;;;;;;;8.10;4.57;;;15.80;99.90;;;;;;6238979;23;20020;-69
2023/10/13 02:50:00;;;;;;;9.32;4.43;;;15.80;99.90;;;;;;6238401;23;20015;-69
2023/10/13 02:52:49;;;;;;;8.13;4.65;;;15.80;99.90;;;;;;6240183;23;20016;-68
2023/10/13 02:55:35;;;;;;;6.93;4.93;;;15.80;99.90;;;;;;6239768;22;20410;-68
2023/10/13 02:58:21;;;;;;;8.48;4.53;;;15.90;99.90;;;;;;6239264;23;20042;-68
2023/10/13 03:01:17;;;;;;;10.45;5.65;;;15.90;99.90;;;;;;6240698;23;20009;-68
2023/10/13 03:04:08;;;;;;;9.52;5.10;;;15.90;99.90;;;;;;6242600;23;20046;-68
2023/10/13 03:06:54;;;;;;;6.97;4.80;;;15.80;99.90;;;;;;6242041;23;20048;-68
2023/10/13 03:09:49;;;;;;;8.85;5.05;;;15.90;99.90;;;;;;6239201;23;20008;-70
2023/10/13 03:12:39;;;;;;;9.23;5.10;;;15.90;99.90;;;;;;6239661;23;20046;-69
2023/10/13 03:15:31;;;;;;;8.57;5.63;;;15.80;99.90;;;;;;6241641;23;20016;-69
2023/10/13 03:18:18;;;;;;;7.80;5.32;;;15.90;99.90;;;;;;6240902;23;20052;-70
2023/10/13 03:21:04;;;;;;;7.63;4.72;;;15.80;99.90;;;;;;6238889;23;20015;-69
2023/10/13 03:23:54;;;;;;;9.65;5.40;;;15.90;99.90;;;;;;6241119;23;20011;-70
2023/10/13 03:26:44;;;;;;;7.57;5.28;;;15.90;99.90;;;;;;6239899;23;20537;-69
2023/10/13 03:29:31;;;;;;;9.70;5.82;;;15.90;99.90;;;;;;6239366;23;20019;-69
2023/10/13 03:32:17;;;;;;;9.80;5.88;;;15.90;99.90;;;;;;6238433;23;20016;-69
2023/10/13 03:35:24;;;;;;;7.75;5.20;;;15.90;99.90;;;;;;6239759;23;20356;-68
2023/10/13 03:38:19;;;;;;;10.05;5.88;;;15.90;99.90;;;;;;6241240;23;20556;-69
2023/10/13 03:41:18;;;;;;;9.68;6.05;;;15.90;99.90;;;;;;6239254;23;20016;-69
2023/10/13 03:44:09;;;;;;;11.07;7.30;;;16.00;99.90;;;;;;6238924;23;20012;-69
2023/10/13 03:46:55;;;;;;;11.25;6.03;;;16.00;99.90;;;;;;6239549;23;20016;-71
2023/10/13 03:49:41;;;;;;;10.05;6.22;;;16.00;99.90;;;;;;6238528;23;20012;-69
2023/10/13 03:52:34;;;;;;;10.13;6.95;;;16.00;99.90;;;;;;6239188;23;20023;-69
2023/10/13 03:55:26;;;;;;;10.65;6.65;;;16.00;99.90;;;;;;6239406;22;20012;-69
2023/10/13 03:58:12;;;;;;;9.70;6.00;;;16.00;99.90;;;;;;6239293;23;20043;-69
2023/10/13 04:00:59;;;;;;;13.02;6.68;;;16.00;99.90;;;;;;6239769;23;20563;-62
2023/10/13 04:04:02;;;;;;;12.63;6.90;;;16.00;99.90;;;;;;6238728;23;20001;-62
2023/10/13 04:21:57;;;;;;;10.50;7.05;;;16.10;99.90;;;;;;6238946;23;20003;-62
2023/10/13 04:25:28;;;;;;;14.30;7.68;;;16.10;99.90;;;;;;6238688;23;20016;-63
2023/10/13 04:31:06;;;;;;;11.85;7.90;;;16.10;99.90;;;;;;6240407;23;20012;-69
2023/10/13 04:33:56;;;;;;;11.30;7.03;;;16.10;99.90;;;;;;6238472;23;20040;-68
2023/10/13 04:36:55;;;;;;;12.43;7.70;;;16.10;99.90;;;;;;6238119;23;20019;-69
2023/10/13 04:39:43;;;;;;;11.27;7.30;;;16.10;99.90;;;;;;6238740;23;20043;-68
2023/10/13 04:45:53;;;;;;;11.63;7.72;;;16.20;99.90;;;;;;6177637;23;20024;-69
2023/10/13 04:48:39;;;;;;;15.30;9.60;;;16.20;99.90;;;;;;6176341;23;20386;-68
2023/10/13 04:51:49;;;;;;;12.48;8.77;;;16.20;99.90;;;;;;6176936;23;20012;-69
2023/10/13 05:03:51;;;;;;;13.07;8.50;;;16.20;99.90;;;;;;6176362;23;20471;-68
2023/10/13 05:46:49;;;;;;;11.95;7.85;;;16.40;99.90;;;;;;6237801;23;20020;-68
2023/10/13 05:49:49;;;;;;;;;;;16.40;99.90;;;;;;6239456;23;20004;-73
2023/10/13 06:29:34;;;;;;;15.50;7.97;;;16.80;99.90;;;;;;6242741;23;20434;-70
2023/10/13 06:32:25;;;;;;;11.48;6.82;;;16.80;99.90;;;;;;6243160;23;20008;-70
2023/10/13 06:35:23;;;;;;;10.82;8.27;;;16.80;99.90;;;;;;6239071;23;20008;-70
2023/10/13 06:38:20;;;;;;;11.65;7.82;;;16.80;99.90;;;;;;6238743;23;20070;-70
2023/10/13 06:41:07;;;;;;;13.80;8.38;;;16.90;99.90;;;;;;6237394;23;20385;-70
2023/10/13 06:43:59;;;;;;;10.10;6.78;;;16.90;99.90;;;;;;6242282;23;20008;-70
2023/10/13 06:46:45;;;;;;;10.20;6.85;;;16.90;99.90;;;;;;6240221;23;20454;-69
2023/10/13 06:49:38;;;;;;;10.43;7.78;;;16.90;99.90;;;;;;6239670;23;20343;-70
2023/10/13 06:52:29;;;;;;;11.75;7.57;;;16.90;99.90;;;;;;6240455;23;20049;-70
2023/10/13 06:55:28;;;;;;;11.63;8.02;;;16.90;99.90;;;;;;6239695;23;20008;-70
2023/10/13 06:58:14;;;;;;;9.55;7.15;;;17.00;99.90;;;;;;6237935;23;20013;-71
2023/10/13 07:01:01;;;;;;;14.13;7.35;;;17.00;99.90;;;;;;6241161;23;20008;-70
2023/10/13 07:03:53;;;;;;;14.57;7.75;;;17.00;99.90;;;;;;6238937;23;20353;-70
2023/10/13 07:06:50;;;;;;;9.73;7.15;;;17.00;99.90;;;;;;6239259;23;20016;-71
2023/10/13 07:09:49;;;;;;;10.05;7.75;;;17.10;99.90;;;;;;6240802;23;20454;-70
2023/10/13 07:12:35;;;;;;;9.70;6.55;;;17.20;99.90;;;;;;6241234;23;20012;-69
2023/10/13 07:15:26;;;;;;;11.40;6.85;;;17.20;99.90;;;;;;6239044;23;20016;-70
2023/10/13 07:18:13;;;;;;;10.73;7.15;;;17.30;99.90;;;;;;6239334;23;20008;-69
2023/10/13 07:21:08;;;;;;;10.88;6.28;;;17.40;99.90;;;;;;6239839;23;20008;-69
2023/10/13 07:24:08;;;;;;;11.82;6.65;;;17.50;99.90;;;;;;6241534;23;20505;-69
2023/10/13 07:27:01;;;;;;;9.63;5.90;;;17.60;99.90;;;;;;6242231;23;20012;-71
2023/10/13 07:29:49;;;;;;;8.35;5.72;;;17.70;99.90;;;;;;6238932;23;20081;-71
2023/10/13 07:32:35;;;;;;;9.45;6.07;;;17.80;99.90;;;;;;6240321;23;20082;-69
2023/10/13 07:35:24;;;;;;;10.10;6.32;;;17.90;99.90;;;;;;6238808;23;20095;-69
2023/10/13 07:38:10;;;;;;;8.48;5.85;;;17.90;99.90;;;;;;6239438;23;20427;-70
2023/10/13 07:41:06;;;;;;;9.80;6.03;;;18.10;99.90;;;;;;6238991;23;20066;-70
2023/10/13 07:43:52;;;;;;;13.88;5.82;;;18.10;99.90;;;;;;6237816;23;20018;-70
2023/10/13 07:46:38;;;;;;;7.55;5.45;;;18.10;99.90;;;;;;6238680;23;20019;-70
2023/10/13 07:49:36;;;;;;;9.85;5.35;;;18.20;99.90;;;;;;6239706;23;20019;-70
2023/10/13 07:55:11;;;;;;;8.50;5.07;;;18.30;99.90;;;;;;6239448;23;20015;-70
2023/10/13 07:57:59;;;;;;;9.95;5.90;;;18.40;99.90;;;;;;6238935;23;20015;-70
2023/10/13 08:06:28;;;;;;;8.27;4.43;;;18.60;99.90;;;;;;6239468;23;20024;-69
2023/10/13 08:09:40;;;;;;;9.77;4.93;;;18.60;99.90;;;;;;6239862;23;20009;-70
2023/10/13 08:12:26;;;;;;;6.55;4.40;;;18.60;99.90;;;;;;6239665;23;20079;-70
2023/10/13 08:15:21;;;;;;;9.25;4.40;;;18.70;99.90;;;;;;6239237;23;20100;-70
2023/10/13 08:18:17;;;;;;;9.32;5.32;;;18.70;99.90;;;;;;6238833;23;20093;-70
2023/10/13 08:21:03;;;;;;;8.05;4.97;;;18.80;99.90;;;;;;6238915;23;20008;-70
2023/10/13 08:26:57;;;;;;;8.98;5.18;;;18.90;99.90;;;;;;6238824;23;20039;-71
2023/10/13 08:32:58;;;;;;;7.38;4.72;;;19.10;99.90;;;;;;6239356;23;20016;-70
2023/10/13 08:38:52;;;;;;;8.43;5.23;;;19.30;99.90;;;;;;6237202;23;20016;-70
2023/10/13 08:41:53;;;;;;;6.95;4.72;;;19.30;99.90;;;;;;6237154;23;20091;-71
2023/10/13 08:44:52;;;;;;;8.07;4.28;;;19.30;99.90;;;;;;6239084;23;20019;-70
2023/10/13 08:47:38;;;;;;;10.57;5.00;;;19.40;99.90;;;;;;6238619;23;20011;-70
2023/10/13 08:56:17;;;;;;;7.30;3.63;;;19.50;99.90;;;;;;6239230;22;20089;-70
2023/10/13 09:01:59;;;;;;;7.05;4.68;;;19.60;99.90;;;;;;6240106;23;20095;-70
2023/10/13 09:04:46;;;;;;;6.50;3.75;;;19.60;99.90;;;;;;6238467;23;20446;-70
2023/10/13 09:07:35;;;;;;;14.60;4.43;;;19.60;99.90;;;;;;6237532;23;20007;-70
2023/10/13 09:10:33;;;;;;;7.05;4.00;;;19.60;99.90;;;;;;6237886;23;20015;-70
2023/10/13 09:13:20;;;;;;;8.38;3.70;;;19.60;99.90;;;;;;6237678;23;20020;-70
2023/10/13 09:16:16;;;;;;;7.65;4.35;;;19.60;99.90;;;;;;6239345;23;20012;-71
2023/10/13 09:19:06;;;;;;;6.63;4.25;;;19.70;99.90;;;;;;6237176;23;20269;-71
2023/10/13 09:21:54;;;;;;;7.53;4.25;;;19.70;99.90;;;;;;6237262;23;20392;-71
2023/10/13 09:24:43;;;;;;;6.75;3.95;;;19.70;99.90;;;;;;6238543;23;20015;-71
2023/10/13 09:27:32;;;;;;;8.07;4.55;;;19.70;99.90;;;;;;6237518;23;20022;-71
2023/10/13 09:30:18;;;;;;;8.00;4.13;;;19.70;99.90;;;;;;6237454;23;20008;-70
2023/10/13 09:33:05;;;;;;;9.02;4.45;;;19.70;99.90;;;;;;6234402;23;20097;-70
2023/10/13 09:35:51;;;;;;;8.07;5.03;;;19.80;99.90;;;;;;6237432;23;20004;-69
2023/10/13 09:38:40;;;;;;;8.82;4.45;;;19.70;99.90;;;;;;6240808;23;20409;-70
2023/10/13 09:41:26;;;;;;;6.38;3.92;;;19.70;99.90;;;;;;6239464;23;20146;-71
2023/10/13 09:44:12;;;;;;;5.90;3.72;;;19.70;99.90;;;;;;6243105;23;20004;-71
2023/10/13 09:47:08;;;;;;;7.82;4.65;;;19.70;99.90;;;;;;6237412;23;20650;-71
2023/10/13 09:50:03;;;;;;;8.48;4.40;;;19.70;99.90;;;;;;6237697;23;20016;-71
2023/10/13 09:52:53;;;;;;;5.90;3.90;;;19.70;99.90;;;;;;6238511;23;20079;-73
2023/10/13 09:55:46;;;;;;;11.90;4.80;;;19.60;99.90;;;;;;6238497;22;20042;-72
2023/10/13 09:58:36;;;;;;;8.27;4.22;;;19.60;99.90;;;;;;6237977;23;20054;-71
2023/10/13 10:01:37;;;;;;;7.07;4.15;;;19.60;99.90;;;;;;6236870;23;20019;-71
2023/10/13 10:04:23;;;;;;;8.38;4.10;;;19.70;99.90;;;;;;6238055;23;20012;-72
2023/10/13 10:07:09;;;;;;;9.75;4.65;;;19.70;99.90;;;;;;6237721;23;20016;-70
2023/10/13 10:09:57;;;;;;;8.52;5.20;;;19.70;99.90;;;;;;6237557;23;20044;-71
2023/10/13 10:13:12;;;;;;;6.13;4.07;;;19.60;99.90;;;;;;6240633;23;20070;-70
2023/10/13 10:16:06;;;;;;;7.72;4.28;;;19.60;99.90;;;;;;6238483;23;20378;-71
2023/10/13 10:19:04;;;;;;;10.05;4.47;;;19.60;99.90;;;;;;6238094;23;20011;-71
2023/10/13 10:22:03;;;;;;;7.03;4.55;;;19.60;99.90;;;;;;6238488;23;20020;-72
2023/10/13 10:25:01;;;;;;;5.72;3.92;;;19.70;99.90;;;;;;6237381;23;20376;-72
2023/10/13 10:27:56;;;;;;;8.75;3.78;;;19.70;99.90;;;;;;6238500;23;20458;-72
2023/10/13 10:30:43;;;;;;;9.50;4.93;;;19.70;99.90;;;;;;6237664;23;20099;-72
2023/10/13 10:33:33;;;;;;;5.95;4.07;;;19.70;99.90;;;;;;6237669;23;20023;-72
2023/10/13 10:36:29;;;;;;;9.05;4.80;;;19.70;99.90;;;;;;6237754;23;20008;-72
2023/10/13 10:39:17;;;;;;;7.93;4.07;;;19.70;99.90;;;;;;6240228;23;20004;-73
2023/10/13 10:42:21;;;;;;;8.98;4.20;;;19.70;99.90;;;;;;6240546;23;20086;-74
2023/10/13 10:45:11;;;;;;;7.80;3.95;;;19.70;99.90;;;;;;6238282;23;20343;-73
2023/10/13 10:47:58;;;;;;;7.00;3.95;;;19.70;99.90;;;;;;6238357;23;20354;-73
2023/10/13 10:50:58;;;;;;;7.60;4.20;;;19.70;99.90;;;;;;6238672;23;20344;-73
2023/10/13 10:53:44;;;;;;;6.70;4.20;;;19.70;99.90;;;;;;6240363;23;20564;-68
2023/10/13 10:59:25;;;;;;;8.73;4.45;;;19.80;99.90;;;;;;6238352;23;20012;-66
2023/10/13 11:02:15;;;;;;;7.10;4.28;;;19.80;99.90;;;;;;6237690;23;20012;-67
2023/10/13 11:05:01;;;;;;;7.05;4.70;;;19.80;99.90;;;;;;6237552;23;20091;-67
2023/10/13 11:07:51;;;;;;;7.50;4.22;;;19.80;99.90;;;;;;6237790;23;20088;-67
2023/10/13 11:10:46;;;;;;;9.30;5.20;;;19.80;99.90;;;;;;6239794;23;20313;-68
2023/10/13 11:13:50;;;;;;;5.15;3.53;;;19.80;99.90;;;;;;6242302;23;20012;-67
2023/10/13 11:16:39;;;;;;;8.77;4.40;;;19.80;99.90;;;;;;6239743;23;20349;-66
2023/10/13 11:19:52;;;;;;;18.33;4.93;;;19.90;99.90;;;;;;6239923;23;20004;-68
2023/10/13 11:22:47;;;;;;;10.13;4.65;;;19.90;99.90;;;;;;6241833;23;20346;-67
2023/10/13 11:25:37;;;;;;;8.77;4.75;;;19.90;99.90;;;;;;6240137;23;20118;-68
2023/10/13 11:28:29;;;;;;;7.55;4.30;;;20.00;99.90;;;;;;6239293;23;20039;-68
2023/10/13 11:31:19;;;;;;;8.27;4.68;;;20.00;99.90;;;;;;6239667;23;20016;-68
2023/10/13 11:34:06;;;;;;;7.28;4.78;;;20.00;99.90;;;;;;6239222;23;20004;-68
2023/10/13 11:36:53;;;;;;;8.13;4.35;;;20.10;99.90;;;;;;6239479;23;20155;-66
2023/10/13 11:39:42;;;;;;;7.20;4.40;;;20.10;99.90;;;;;;6239389;22;20008;-66
2023/10/13 11:42:28;;;;;;;10.65;4.15;;;20.10;99.90;;;;;;6240485;23;20080;-67
2023/10/13 11:45:31;;;;;;;6.80;4.20;;;20.10;99.90;;;;;;6239874;23;20020;-68
2023/10/13 11:48:17;;;;;;;8.48;4.50;;;20.10;99.90;;;;;;6239199;23;20008;-67
2023/10/13 11:51:07;;;;;;;6.40;4.30;;;20.10;99.90;;;;;;6239438;23;20255;-67
2023/10/13 11:53:53;;;;;;;6.78;4.25;;;20.10;99.90;;;;;;6240476;23;20015;-67
2023/10/13 11:56:39;;;;;;;8.13;4.38;;;20.10;99.90;;;;;;6240189;22;20433;-67
2023/10/13 11:59:27;;;;;;;7.97;4.75;;;20.20;99.90;;;;;;6238995;23;20012;-66
2023/10/13 12:05:12;;;;;;;7.75;4.47;;;20.20;99.90;;;;;;6239412;23;20736;-67
2023/10/13 12:08:03;;;;;;;7.07;4.00;;;20.20;99.90;;;;;;6238805;23;20008;-68
2023/10/13 12:10:59;;;;;;;5.65;4.10;;;20.30;99.90;;;;;;6240072;23;20040;-66
2023/10/13 12:13:45;;;;;;;6.82;4.38;;;20.30;99.90;;;;;;6240068;23;20027;-67
2023/10/13 12:16:34;;;;;;;7.57;4.25;;;20.40;99.90;;;;;;6242367;23;20020;-67
2023/10/13 12:19:24;;;;;;;11.90;4.88;;;20.40;99.90;;;;;;6239238;23;20071;-74
2023/10/13 12:22:16;;;;;;;7.03;4.38;;;20.40;99.90;;;;;;6238988;23;20043;-72
2023/10/13 12:25:18;;;;;;;8.80;4.07;;;20.50;99.90;;;;;;6236956;23;20012;-73
2023/10/13 12:28:18;;;;;;;6.88;3.97;;;20.50;99.90;;;;;;6239876;23;20342;-72
2023/10/13 12:31:07;;;;;;;7.05;3.97;;;20.50;99.90;;;;;;6239463;23;20008;-74
2023/10/13 12:33:57;;;;;;;6.90;4.45;;;20.60;99.90;;;;;;6238480;23;20111;-74
2023/10/13 12:36:53;;;;;;;7.85;4.10;;;20.60;99.90;;;;;;6237930;23;20346;-74
2023/10/13 12:51:59;;;;;;;9.68;4.45;;;20.80;99.90;;;;;;6239615;23;20323;-72
2023/10/13 12:57:43;;;;;;;9.48;4.43;;;21.00;99.90;;;;;;6241348;23;20044;-72
2023/10/13 13:00:33;;;;;;;8.20;4.30;;;21.00;99.90;;;;;;6244490;23;20008;-72
2023/10/13 13:03:18;;;;;;;7.60;4.43;;;21.00;99.90;;;;;;6243593;23;20078;-73
2023/10/13 13:06:07;;;;;;;8.75;5.10;;;21.00;99.90;;;;;;6240893;23;20054;-73
2023/10/13 13:08:53;;;;;;;13.70;4.55;;;21.10;99.90;;;;;;6238172;23;20514;-72
2023/10/13 13:11:39;;;;;;;5.00;3.25;;;21.10;99.90;;;;;;6238125;23;20012;-72
2023/10/13 13:14:28;;;;;;;9.85;4.25;;;21.20;99.90;;;;;;6238091;23;20012;-72
2023/10/13 13:17:14;;;;;;;10.27;4.70;;;21.20;99.90;;;;;;6239135;23;20019;-72
2023/10/13 13:20:07;;;;;;;12.13;4.85;;;21.20;99.90;;;;;;6238513;23;20533;-72
2023/10/13 13:22:54;;;;;;;10.50;4.80;;;21.30;99.90;;;;;;6238361;23;20019;-72
2023/10/13 13:25:42;;;;;;;7.47;4.50;;;21.40;99.90;;;;;;6238424;23;20020;-71
2023/10/13 13:28:37;;;;;;;8.32;3.88;;;21.40;99.90;;;;;;6239781;23;20087;-73
2023/10/13 13:31:25;;;;;;;12.50;4.50;;;21.50;99.90;;;;;;6240373;23;20411;-72
2023/10/13 13:34:14;;;;;;;12.20;4.95;;;21.50;99.90;;;;;;6239848;23;20354;-75
2023/10/13 13:37:00;;;;;;;8.23;4.00;;;21.60;99.90;;;;;;6216602;23;20028;-73
2023/10/13 13:39:47;;;;;;;10.63;4.13;;;21.60;99.90;;;;;;6238592;23;20008;-75
2023/10/13 13:42:36;;;;;;;9.98;5.65;;;21.70;99.90;;;;;;6238647;23;20059;-73
2023/10/13 13:45:27;;;;;;;9.07;4.57;;;21.70;99.90;;;;;;6239177;23;20030;-71
2023/10/13 13:48:15;;;;;;;7.60;4.15;;;21.70;99.90;;;;;;6239346;23;20000;-75
2023/10/13 13:51:12;;;;;;;8.98;4.30;;;21.80;99.90;;;;;;6238168;23;20012;-74
2023/10/13 13:53:59;;;;;;;13.32;4.15;;;21.80;99.90;;;;;;6239999;23;20008;-79
2023/10/13 13:56:45;;;;;;;9.48;4.63;;;21.80;99.90;;;;;;6238714;22;20008;-71
2023/10/13 13:59:33;;;;;;;5.88;4.13;;;21.80;99.90;;;;;;6238570;23;20044;-72
2023/10/13 14:02:19;;;;;;;10.55;4.53;;;21.90;99.90;;;;;;6237369;23;20012;-72
2023/10/13 14:05:06;;;;;;;12.05;4.68;;;22.00;99.90;;;;;;6236651;23;20057;-73
2023/10/13 14:07:55;;;;;;;10.07;3.80;;;22.00;99.90;;;;;;6238330;23;20016;-71
2023/10/13 14:13:48;;;;;;;8.88;3.72;;;22.10;99.90;;;;;;6237044;23;20016;-71
2023/10/13 14:16:37;;;;;;;8.80;3.85;;;22.20;99.90;;;;;;6237879;23;20012;-71
2023/10/13 14:19:29;;;;;;;7.43;3.80;;;22.30;99.90;;;;;;6238744;23;20058;-72
2023/10/13 14:22:15;;;;;;;12.38;5.22;;;22.30;99.90;;;;;;6237427;23;20450;-71
2023/10/13 14:25:08;;;;;;;9.68;4.63;;;22.40;99.90;;;;;;6237527;23;20013;-72
2023/10/13 14:27:58;;;;;;;13.43;5.15;;;22.40;99.90;;;;;;6238600;23;20078;-72
2023/10/13 14:30:44;;;;;;;18.30;5.05;;;22.40;99.90;;;;;;6238975;23;20016;-72
2023/10/13 14:33:31;;;;;;;8.32;4.97;;;22.50;99.90;;;;;;6239557;23;20079;-71
2023/10/13 14:36:19;;;;;;;13.48;4.70;;;22.40;99.90;;;;;;6239436;23;20369;-72
2023/10/13 14:39:09;;;;;;;7.90;4.20;;;22.50;99.90;;;;;;6238215;23;20019;-72
2023/10/13 14:41:54;;;;;;;7.85;4.20;;;22.50;99.90;;;;;;6237776;23;20357;-72
2023/10/13 14:44:40;;;;;;;7.22;3.88;;;22.60;99.90;;;;;;6238522;23;20059;-72
2023/10/13 14:47:27;;;;;;;8.80;4.75;;;22.60;99.90;;;;;;6240058;23;20016;-72
2023/10/13 14:50:19;;;;;;;10.65;4.60;;;22.60;99.90;;;;;;6239756;23;20091;-72
2023/10/13 14:53:05;;;;;;;7.43;4.25;;;22.50;99.90;;;;;;6217677;23;20032;-72
2023/10/13 14:55:51;;;;;;;11.70;4.93;;;22.50;99.90;;;;;;6236823;22;20130;-72
2023/10/13 14:58:44;;;;;;;8.63;4.32;;;22.40;99.90;;;;;;6240982;23;20008;-72
2023/10/13 15:01:32;;;;;;;14.13;4.28;;;22.30;99.90;;;;;;6239735;23;20480;-72
2023/10/13 15:04:18;;;;;;;10.30;4.20;;;22.30;99.90;;;;;;6240637;23;20345;-73
2023/10/13 15:07:04;;;;;;;7.22;3.90;;;22.30;99.90;;;;;;6240332;23;20020;-72
2023/10/13 15:09:51;;;;;;;8.07;4.32;;;22.20;99.90;;;;;;6240926;23;20027;-71
2023/10/13 15:12:40;;;;;;;7.57;4.63;;;22.20;99.90;;;;;;6240371;23;20092;-75
2023/10/13 15:15:26;;;;;;;6.90;3.70;;;22.10;99.90;;;;;;6238781;23;20015;-71
2023/10/13 15:18:12;;;;;;;7.43;3.53;;;22.10;99.90;;;;;;6239705;23;20019;-70
2023/10/13 15:20:58;;;;;;;9.82;4.70;;;22.10;99.90;;;;;;6240437;23;20039;-71
2023/10/13 15:23:44;;;;;;;8.38;4.05;;;22.00;99.90;;;;;;6240554;23;20019;-73
2023/10/13 15:26:30;;;;;;;7.80;3.60;;;22.00;99.90;;;;;;6238368;23;20027;-71
2023/10/13 15:29:26;;;;;;;8.57;4.85;;;22.00;99.90;;;;;;6238542;23;20018;-74
2023/10/13 15:35:01;;;;;;;8.35;4.80;;;21.90;99.90;;;;;;6240035;23;20087;-76
2023/10/13 15:37:51;;;;;;;9.18;4.55;;;21.80;99.90;;;;;;6240574;23;20008;-76
2023/10/13 15:40:44;;;;;;;8.25;5.05;;;21.80;99.90;;;;;;6238520;23;20094;-73
2023/10/13 15:43:30;;;;;;;12.93;5.75;;;21.80;99.90;;;;;;6238670;23;20008;-73
2023/10/13 15:46:16;;;;;;;8.18;4.38;;;21.80;99.90;;;;;;6239159;23;20523;-72
2023/10/13 15:49:05;;;;;;;9.15;4.13;;;21.70;99.90;;;;;;6237899;23;20040;-71
2023/10/13 15:51:51;;;;;;;8.80;4.50;;;21.70;99.90;;;;;;6239976;23;20019;-72
2023/10/13 15:54:37;;;;;;;10.38;4.82;;;21.70;99.90;;;;;;6239667;23;20054;-72
2023/10/13 15:57:23;;;;;;;8.52;4.75;;;21.70;99.90;;;;;;6237984;22;20063;-72
2023/10/13 16:00:23;;;;;;;12.88;5.75;;;21.60;99.90;;;;;;6216543;23;20012;-72
2023/10/13 16:03:11;;;;;;;11.85;6.20;;;21.60;99.90;;;;;;6239404;23;20473;-72
2023/10/13 16:05:57;;;;;;;9.13;5.68;;;21.60;99.90;;;;;;6241209;23;20026;-72
2023/10/13 16:08:43;;;;;;;8.57;4.78;;;21.50;99.90;;;;;;6241182;23;20004;-72
2023/10/13 16:11:29;;;;;;;11.95;4.30;;;21.50;99.90;;;;;;6216626;23;20016;-72
2023/10/13 16:14:17;;;;;;;13.40;5.20;;;21.50;99.90;;;;;;6237500;23;20011;-74
2023/10/13 16:17:04;;;;;;;14.63;5.70;;;21.50;99.90;;;;;;6236886;23;20091;-72
2023/10/13 16:19:50;;;;;;;9.68;4.32;;;21.40;99.90;;;;;;6243624;23;20019;-72
2023/10/13 16:22:36;;;;;;;7.07;4.72;;;21.40;99.90;;;;;;6244885;23;20404;-71
2023/10/13 16:25:24;;;;;;;8.93;5.22;;;21.40;99.90;;;;;;6240221;23;20020;-71
2023/10/13 16:28:12;;;;;;;11.18;5.45;;;21.30;99.90;;;;;;6236996;23;20119;-72
2023/10/13 16:30:57;;;;;;;9.02;4.78;;;21.30;99.90;;;;;;6236964;23;20016;-71
2023/10/13 16:33:44;;;;;;;10.68;5.13;;;21.30;99.90;;;;;;6238689;23;20032;-71
2023/10/13 16:36:30;;;;;;;11.05;4.95;;;21.20;99.90;;;;;;6238148;23;20008;-71
2023/10/13 16:39:16;;;;;;;8.30;4.53;;;21.20;99.90;;;;;;6239909;23;20307;-71
2023/10/13 16:42:07;;;;;;;8.32;4.75;;;21.10;99.90;;;;;;6238389;23;20024;-69
2023/10/13 16:44:53;;;;;;;9.63;5.28;;;21.10;99.90;;;;;;6238875;23;20031;-71
2023/10/13 16:47:42;;;;;;;7.82;4.68;;;21.10;99.90;;;;;;6238653;23;20016;-71
2023/10/13 16:50:28;;;;;;;6.50;4.05;;;21.00;99.90;;;;;;6215984;23;20087;-71
2023/10/13 16:53:14;;;;;;;13.27;4.80;;;21.00;99.90;;;;;;6238462;23;20008;-71
2023/10/13 16:56:01;;;;;;;11.45;5.28;;;21.00;99.90;;;;;;6237003;22;20015;-70
2023/10/13 16:58:47;;;;;;;6.28;4.22;;;20.90;99.90;;;;;;6238096;23;20016;-70
2023/10/13 17:01:33;;;;;;;11.52;5.30;;;20.90;99.90;;;;;;6238569;23;20035;-70
2023/10/13 17:04:20;;;;;;;9.48;5.07;;;20.90;99.90;;;;;;6238277;23;20016;-70
2023/10/13 17:07:07;;;;;;;7.90;4.22;;;20.90;99.90;;;;;;6239374;23;20016;-70
2023/10/13 17:09:56;;;;;;;8.40;4.63;;;20.90;99.90;;;;;;6237472;23;20333;-70
2023/10/13 17:12:43;;;;;;;11.90;6.20;;;20.90;99.90;;;;;;6238421;23;20042;-70
2023/10/13 17:15:33;;;;;;;10.65;4.70;;;20.90;99.90;;;;;;6236215;23;20008;-70
2023/10/13 17:18:19;;;;;;;6.93;4.35;;;20.90;99.90;;;;;;6239825;23;20018;-71
2023/10/13 17:21:17;;;;;;;11.10;4.95;;;20.90;99.90;;;;;;6237595;23;20482;-70
2023/10/13 17:24:04;;;;;;;9.68;4.50;;;20.90;99.90;;;;;;6237694;23;20016;-70
2023/10/13 17:26:50;;;;;;;7.90;4.72;;;20.90;99.90;;;;;;6239468;23;20031;-71